sensor_id;sensor_type;location;lat;lon;timestamp;P1;durP1;ratioP1;P2;durP2;ratioP2
74465;SDS011;62916;50.044;15.938;2022-10-16T00:02:02;4.70;;;4.30;;
74465;SDS011;62916;50.044;15.938;2022-10-16T00:04:33;4.20;;;3.80;;
74465;SDS011;62916;50.044;15.938;2022-10-16T00:07:03;5.00;;;4.50;;
74465;SDS011;62916;50.044;15.938;2022-10-16T00:09:34;4.60;;;4.10;;
74465;SDS011;62916;50.044;15.938;2022-10-16T00:12:05;5.00;;;4.50;;
74465;SDS011;62916;50.044;15.938;2022-10-16T00:14:35;4.80;;;4.30;;
74465;SDS011;62916;50.044;15.938;2022-10-16T00:17:08;4.60;;;4.20;;
74465;SDS011;62916;50.044;15.938;2022-10-16T00:19:39;4.30;;;3.80;;
74465;SDS011;62916;50.044;15.938;2022-10-16T00:22:10;4.90;;;4.40;;
74465;SDS011;62916;50.044;15.938;2022-10-16T00:24:40;5.20;;;4.10;;
74465;SDS011;62916;50.044;15.938;2022-10-16T00:27:11;4.60;;;3.90;;
74465;SDS011;62916;50.044;15.938;2022-10-16T00:29:42;4.50;;;4.10;;
74465;SDS011;62916;50.044;15.938;2022-10-16T00:32:13;4.30;;;3.90;;
74465;SDS011;62916;50.044;15.938;2022-10-16T00:34:44;4.90;;;4.40;;
74465;SDS011;62916;50.044;15.938;2022-10-16T00:37:15;4.60;;;3.90;;
74465;SDS011;62916;50.044;15.938;2022-10-16T00:39:45;5.10;;;4.40;;
74465;SDS011;62916;50.044;15.938;2022-10-16T00:42:17;4.60;;;4.20;;
74465;SDS011;62916;50.044;15.938;2022-10-16T00:44:49;4.90;;;4.50;;
74465;SDS011;62916;50.044;15.938;2022-10-16T00:47:22;4.10;;;3.70;;
74465;SDS011;62916;50.044;15.938;2022-10-16T00:49:59;4.30;;;3.80;;
74465;SDS011;62916;50.044;15.938;2022-10-16T00:52:34;4.50;;;4.10;;
74465;SDS011;62916;50.044;15.938;2022-10-16T00:55:06;4.70;;;4.00;;
74465;SDS011;62916;50.044;15.938;2022-10-16T00:57:38;4.10;;;3.70;;
74465;SDS011;62916;50.044;15.938;2022-10-16T01:00:13;4.50;;;4.10;;
74465;SDS011;62916;50.044;15.938;2022-10-16T01:02:52;6.20;;;4.20;;
74465;SDS011;62916;50.044;15.938;2022-10-16T01:05:25;4.90;;;3.80;;
74465;SDS011;62916;50.044;15.938;2022-10-16T01:08:04;4.30;;;3.80;;
74465;SDS011;62916;50.044;15.938;2022-10-16T01:10:44;5.30;;;3.70;;
74465;SDS011;62916;50.044;15.938;2022-10-16T01:13:23;4.90;;;4.30;;
74465;SDS011;62916;50.044;15.938;2022-10-16T01:15:59;4.40;;;4.00;;
74465;SDS011;62916;50.044;15.938;2022-10-16T01:18:36;4.20;;;3.80;;
74465;SDS011;62916;50.044;15.938;2022-10-16T01:21:12;4.00;;;3.60;;
74465;SDS011;62916;50.044;15.938;2022-10-16T01:23:47;4.40;;;4.10;;
74465;SDS011;62916;50.044;15.938;2022-10-16T01:26:30;4.30;;;3.90;;
74465;SDS011;62916;50.044;15.938;2022-10-16T01:29:12;3.90;;;3.50;;
74465;SDS011;62916;50.044;15.938;2022-10-16T01:31:48;4.10;;;3.70;;
74465;SDS011;62916;50.044;15.938;2022-10-16T01:34:25;4.80;;;4.30;;
74465;SDS011;62916;50.044;15.938;2022-10-16T01:37:02;4.00;;;3.60;;
74465;SDS011;62916;50.044;15.938;2022-10-16T01:39:38;5.20;;;4.70;;
74465;SDS011;62916;50.044;15.938;2022-10-16T01:42:14;4.30;;;3.90;;
74465;SDS011;62916;50.044;15.938;2022-10-16T01:44:49;3.50;;;3.20;;
74465;SDS011;62916;50.044;15.938;2022-10-16T01:47:23;4.40;;;3.70;;
74465;SDS011;62916;50.044;15.938;2022-10-16T01:49:56;4.00;;;3.70;;
74465;SDS011;62916;50.044;15.938;2022-10-16T01:52:28;4.20;;;3.80;;
74465;SDS011;62916;50.044;15.938;2022-10-16T01:55:00;3.60;;;3.30;;
74465;SDS011;62916;50.044;15.938;2022-10-16T01:57:35;3.70;;;3.40;;
74465;SDS011;62916;50.044;15.938;2022-10-16T02:00:10;4.30;;;3.90;;
74465;SDS011;62916;50.044;15.938;2022-10-16T02:02:43;3.60;;;3.30;;
74465;SDS011;62916;50.044;15.938;2022-10-16T02:05:18;3.80;;;3.50;;
74465;SDS011;62916;50.044;15.938;2022-10-16T02:07:53;3.60;;;3.10;;
74465;SDS011;62916;50.044;15.938;2022-10-16T02:10:29;4.40;;;3.50;;
74465;SDS011;62916;50.044;15.938;2022-10-16T02:13:03;4.60;;;3.60;;
74465;SDS011;62916;50.044;15.938;2022-10-16T02:15:37;4.20;;;3.80;;
74465;SDS011;62916;50.044;15.938;2022-10-16T02:18:08;4.70;;;4.10;;
74465;SDS011;62916;50.044;15.938;2022-10-16T02:20:42;3.80;;;3.40;;
74465;SDS011;62916;50.044;15.938;2022-10-16T02:23:18;4.00;;;3.60;;
74465;SDS011;62916;50.044;15.938;2022-10-16T02:25:53;3.80;;;3.40;;
74465;SDS011;62916;50.044;15.938;2022-10-16T02:28:28;5.30;;;4.20;;
74465;SDS011;62916;50.044;15.938;2022-10-16T02:31:08;4.90;;;4.40;;
74465;SDS011;62916;50.044;15.938;2022-10-16T02:33:41;4.00;;;3.60;;
74465;SDS011;62916;50.044;15.938;2022-10-16T02:36:15;3.50;;;3.20;;
74465;SDS011;62916;50.044;15.938;2022-10-16T02:38:46;4.10;;;3.70;;
74465;SDS011;62916;50.044;15.938;2022-10-16T02:41:19;3.70;;;3.40;;
74465;SDS011;62916;50.044;15.938;2022-10-16T02:43:52;3.60;;;3.30;;
74465;SDS011;62916;50.044;15.938;2022-10-16T02:46:23;3.40;;;3.10;;
74465;SDS011;62916;50.044;15.938;2022-10-16T02:48:54;3.50;;;3.20;;
74465;SDS011;62916;50.044;15.938;2022-10-16T02:51:25;3.50;;;3.10;;
74465;SDS011;62916;50.044;15.938;2022-10-16T02:53:55;3.70;;;3.40;;
74465;SDS011;62916;50.044;15.938;2022-10-16T02:56:26;3.80;;;3.30;;
74465;SDS011;62916;50.044;15.938;2022-10-16T02:58:57;4.20;;;3.80;;
74465;SDS011;62916;50.044;15.938;2022-10-16T03:01:28;4.40;;;4.00;;
74465;SDS011;62916;50.044;15.938;2022-10-16T03:03:59;3.50;;;3.20;;
74465;SDS011;62916;50.044;15.938;2022-10-16T03:06:30;4.10;;;3.70;;
74465;SDS011;62916;50.044;15.938;2022-10-16T03:09:01;3.70;;;3.40;;
74465;SDS011;62916;50.044;15.938;2022-10-16T03:11:31;3.80;;;3.30;;
74465;SDS011;62916;50.044;15.938;2022-10-16T03:14:02;5.10;;;3.00;;
74465;SDS011;62916;50.044;15.938;2022-10-16T03:16:33;3.70;;;3.40;;
74465;SDS011;62916;50.044;15.938;2022-10-16T03:19:03;4.50;;;3.70;;
74465;SDS011;62916;50.044;15.938;2022-10-16T03:21:34;3.70;;;3.40;;
74465;SDS011;62916;50.044;15.938;2022-10-16T03:24:05;3.50;;;3.20;;
74465;SDS011;62916;50.044;15.938;2022-10-16T03:26:36;3.60;;;3.10;;
74465;SDS011;62916;50.044;15.938;2022-10-16T03:29:07;3.70;;;3.40;;
74465;SDS011;62916;50.044;15.938;2022-10-16T03:31:38;6.20;;;3.90;;
74465;SDS011;62916;50.044;15.938;2022-10-16T03:34:09;3.30;;;3.00;;
74465;SDS011;62916;50.044;15.938;2022-10-16T03:36:39;3.30;;;3.00;;
74465;SDS011;62916;50.044;15.938;2022-10-16T03:39:10;3.50;;;3.20;;
74465;SDS011;62916;50.044;15.938;2022-10-16T03:41:41;3.80;;;3.50;;
74465;SDS011;62916;50.044;15.938;2022-10-16T03:44:14;3.60;;;3.30;;
74465;SDS011;62916;50.044;15.938;2022-10-16T03:46:44;4.00;;;3.50;;
74465;SDS011;62916;50.044;15.938;2022-10-16T03:49:15;3.30;;;3.00;;
74465;SDS011;62916;50.044;15.938;2022-10-16T03:51:46;3.50;;;3.00;;
74465;SDS011;62916;50.044;15.938;2022-10-16T03:54:17;3.30;;;3.00;;
74465;SDS011;62916;50.044;15.938;2022-10-16T03:56:49;3.50;;;3.20;;
74465;SDS011;62916;50.044;15.938;2022-10-16T03:59:20;3.30;;;3.00;;
74465;SDS011;62916;50.044;15.938;2022-10-16T04:01:51;3.20;;;3.00;;
74465;SDS011;62916;50.044;15.938;2022-10-16T04:04:22;4.00;;;3.20;;
74465;SDS011;62916;50.044;15.938;2022-10-16T04:06:53;3.30;;;3.10;;
74465;SDS011;62916;50.044;15.938;2022-10-16T04:09:24;3.00;;;2.70;;
74465;SDS011;62916;50.044;15.938;2022-10-16T04:11:54;3.50;;;3.10;;
74465;SDS011;62916;50.044;15.938;2022-10-16T04:14:25;4.40;;;3.40;;
74465;SDS011;62916;50.044;15.938;2022-10-16T04:16:56;3.10;;;2.80;;
74465;SDS011;62916;50.044;15.938;2022-10-16T04:19:27;3.70;;;3.40;;
74465;SDS011;62916;50.044;15.938;2022-10-16T04:21:58;3.80;;;3.50;;
74465;SDS011;62916;50.044;15.938;2022-10-16T04:24:28;3.50;;;2.70;;
74465;SDS011;62916;50.044;15.938;2022-10-16T04:26:59;3.60;;;3.30;;
74465;SDS011;62916;50.044;15.938;2022-10-16T04:29:30;3.40;;;3.10;;
74465;SDS011;62916;50.044;15.938;2022-10-16T04:32:00;3.70;;;3.30;;
74465;SDS011;62916;50.044;15.938;2022-10-16T04:34:31;3.20;;;2.70;;
74465;SDS011;62916;50.044;15.938;2022-10-16T04:37:02;3.40;;;3.10;;
74465;SDS011;62916;50.044;15.938;2022-10-16T04:39:33;3.70;;;3.30;;
74465;SDS011;62916;50.044;15.938;2022-10-16T04:42:03;3.40;;;3.10;;
74465;SDS011;62916;50.044;15.938;2022-10-16T04:44:34;2.80;;;2.60;;
74465;SDS011;62916;50.044;15.938;2022-10-16T04:47:05;3.50;;;3.20;;
74465;SDS011;62916;50.044;15.938;2022-10-16T04:49:35;4.00;;;3.00;;
74465;SDS011;62916;50.044;15.938;2022-10-16T04:52:06;3.50;;;3.10;;
74465;SDS011;62916;50.044;15.938;2022-10-16T04:54:37;3.40;;;3.10;;
74465;SDS011;62916;50.044;15.938;2022-10-16T04:57:08;3.90;;;3.50;;
74465;SDS011;62916;50.044;15.938;2022-10-16T04:59:38;4.80;;;2.80;;
74465;SDS011;62916;50.044;15.938;2022-10-16T05:02:09;3.50;;;3.20;;
74465;SDS011;62916;50.044;15.938;2022-10-16T05:04:40;3.40;;;2.90;;
74465;SDS011;62916;50.044;15.938;2022-10-16T05:07:11;3.30;;;3.00;;
74465;SDS011;62916;50.044;15.938;2022-10-16T05:09:41;3.90;;;2.90;;
74465;SDS011;62916;50.044;15.938;2022-10-16T05:12:12;3.40;;;3.10;;
74465;SDS011;62916;50.044;15.938;2022-10-16T05:14:43;3.20;;;2.90;;
74465;SDS011;62916;50.044;15.938;2022-10-16T05:17:13;3.20;;;2.80;;
74465;SDS011;62916;50.044;15.938;2022-10-16T05:19:44;3.30;;;3.00;;
74465;SDS011;62916;50.044;15.938;2022-10-16T05:22:15;4.00;;;3.60;;
74465;SDS011;62916;50.044;15.938;2022-10-16T05:24:45;3.10;;;2.80;;
74465;SDS011;62916;50.044;15.938;2022-10-16T05:27:16;3.20;;;2.90;;
74465;SDS011;62916;50.044;15.938;2022-10-16T05:29:47;2.90;;;2.70;;
74465;SDS011;62916;50.044;15.938;2022-10-16T05:32:19;3.10;;;2.80;;
74465;SDS011;62916;50.044;15.938;2022-10-16T05:34:50;2.80;;;2.60;;
74465;SDS011;62916;50.044;15.938;2022-10-16T05:37:21;3.10;;;2.70;;
74465;SDS011;62916;50.044;15.938;2022-10-16T05:39:52;2.80;;;2.60;;
74465;SDS011;62916;50.044;15.938;2022-10-16T05:42:22;3.10;;;2.80;;
74465;SDS011;62916;50.044;15.938;2022-10-16T05:44:53;3.20;;;2.90;;
74465;SDS011;62916;50.044;15.938;2022-10-16T05:47:24;2.90;;;2.70;;
74465;SDS011;62916;50.044;15.938;2022-10-16T05:49:56;3.00;;;2.70;;
74465;SDS011;62916;50.044;15.938;2022-10-16T05:52:27;3.30;;;3.00;;
74465;SDS011;62916;50.044;15.938;2022-10-16T05:54:58;3.00;;;2.70;;
74465;SDS011;62916;50.044;15.938;2022-10-16T05:57:29;2.40;;;2.20;;
74465;SDS011;62916;50.044;15.938;2022-10-16T05:59:59;3.30;;;3.00;;
74465;SDS011;62916;50.044;15.938;2022-10-16T06:02:31;3.00;;;2.70;;
74465;SDS011;62916;50.044;15.938;2022-10-16T06:05:02;2.80;;;2.60;;
74465;SDS011;62916;50.044;15.938;2022-10-16T06:07:35;2.90;;;2.60;;
74465;SDS011;62916;50.044;15.938;2022-10-16T06:10:06;2.90;;;2.70;;
74465;SDS011;62916;50.044;15.938;2022-10-16T06:12:38;3.00;;;2.80;;
74465;SDS011;62916;50.044;15.938;2022-10-16T06:15:09;3.40;;;3.00;;
74465;SDS011;62916;50.044;15.938;2022-10-16T06:17:40;3.30;;;2.80;;
74465;SDS011;62916;50.044;15.938;2022-10-16T06:20:11;3.60;;;3.20;;
74465;SDS011;62916;50.044;15.938;2022-10-16T06:22:41;3.10;;;2.80;;
74465;SDS011;62916;50.044;15.938;2022-10-16T06:25:12;3.50;;;3.20;;
74465;SDS011;62916;50.044;15.938;2022-10-16T06:27:43;2.80;;;2.50;;
74465;SDS011;62916;50.044;15.938;2022-10-16T06:30:14;3.50;;;3.20;;
74465;SDS011;62916;50.044;15.938;2022-10-16T06:32:45;3.70;;;3.40;;
74465;SDS011;62916;50.044;15.938;2022-10-16T06:35:16;3.30;;;3.00;;
74465;SDS011;62916;50.044;15.938;2022-10-16T06:37:47;3.50;;;3.20;;
74465;SDS011;62916;50.044;15.938;2022-10-16T06:40:18;3.80;;;3.30;;
74465;SDS011;62916;50.044;15.938;2022-10-16T06:42:49;3.80;;;3.50;;
74465;SDS011;62916;50.044;15.938;2022-10-16T06:45:20;6.00;;;3.30;;
74465;SDS011;62916;50.044;15.938;2022-10-16T06:47:51;4.90;;;3.20;;
74465;SDS011;62916;50.044;15.938;2022-10-16T06:50:22;3.70;;;3.30;;
74465;SDS011;62916;50.044;15.938;2022-10-16T06:52:53;3.70;;;3.10;;
74465;SDS011;62916;50.044;15.938;2022-10-16T06:55:23;3.90;;;3.50;;
74465;SDS011;62916;50.044;15.938;2022-10-16T06:57:54;4.60;;;4.20;;
74465;SDS011;62916;50.044;15.938;2022-10-16T07:00:25;4.00;;;3.20;;
74465;SDS011;62916;50.044;15.938;2022-10-16T07:02:56;4.00;;;3.30;;
74465;SDS011;62916;50.044;15.938;2022-10-16T07:05:27;4.00;;;3.60;;
74465;SDS011;62916;50.044;15.938;2022-10-16T07:07:58;5.20;;;4.30;;
74465;SDS011;62916;50.044;15.938;2022-10-16T07:10:28;4.60;;;4.10;;
74465;SDS011;62916;50.044;15.938;2022-10-16T07:12:59;4.70;;;3.60;;
74465;SDS011;62916;50.044;15.938;2022-10-16T07:15:30;5.20;;;4.50;;
74465;SDS011;62916;50.044;15.938;2022-10-16T07:18:02;4.90;;;4.00;;
74465;SDS011;62916;50.044;15.938;2022-10-16T07:20:32;4.90;;;3.80;;
74465;SDS011;62916;50.044;15.938;2022-10-16T07:23:05;4.30;;;3.90;;
74465;SDS011;62916;50.044;15.938;2022-10-16T07:25:36;5.50;;;4.00;;
74465;SDS011;62916;50.044;15.938;2022-10-16T07:28:06;4.30;;;3.70;;
74465;SDS011;62916;50.044;15.938;2022-10-16T07:30:37;4.70;;;4.10;;
74465;SDS011;62916;50.044;15.938;2022-10-16T07:33:08;4.40;;;4.00;;
74465;SDS011;62916;50.044;15.938;2022-10-16T07:35:39;4.50;;;3.70;;
74465;SDS011;62916;50.044;15.938;2022-10-16T07:38:18;4.90;;;3.90;;
74465;SDS011;62916;50.044;15.938;2022-10-16T07:40:56;4.50;;;3.70;;
74465;SDS011;62916;50.044;15.938;2022-10-16T07:43:28;4.50;;;3.80;;
74465;SDS011;62916;50.044;15.938;2022-10-16T07:46:00;4.70;;;4.00;;
74465;SDS011;62916;50.044;15.938;2022-10-16T07:48:33;4.50;;;3.90;;
74465;SDS011;62916;50.044;15.938;2022-10-16T07:51:05;4.40;;;4.00;;
74465;SDS011;62916;50.044;15.938;2022-10-16T07:53:37;4.70;;;3.70;;
74465;SDS011;62916;50.044;15.938;2022-10-16T07:56:08;5.10;;;4.00;;
74465;SDS011;62916;50.044;15.938;2022-10-16T07:58:40;4.50;;;4.10;;
74465;SDS011;62916;50.044;15.938;2022-10-16T08:01:12;5.30;;;4.70;;
74465;SDS011;62916;50.044;15.938;2022-10-16T08:03:44;4.80;;;4.30;;
74465;SDS011;62916;50.044;15.938;2022-10-16T08:06:17;4.70;;;3.90;;
74465;SDS011;62916;50.044;15.938;2022-10-16T08:08:55;4.70;;;4.20;;
74465;SDS011;62916;50.044;15.938;2022-10-16T08:11:27;5.80;;;4.80;;
74465;SDS011;62916;50.044;15.938;2022-10-16T08:13:58;5.10;;;4.60;;
74465;SDS011;62916;50.044;15.938;2022-10-16T08:16:29;4.60;;;4.20;;
74465;SDS011;62916;50.044;15.938;2022-10-16T08:19:00;4.60;;;4.00;;
74465;SDS011;62916;50.044;15.938;2022-10-16T08:21:31;4.90;;;4.40;;
74465;SDS011;62916;50.044;15.938;2022-10-16T08:24:02;5.20;;;4.30;;
74465;SDS011;62916;50.044;15.938;2022-10-16T08:26:33;5.30;;;4.80;;
74465;SDS011;62916;50.044;15.938;2022-10-16T08:29:04;6.20;;;4.30;;
74465;SDS011;62916;50.044;15.938;2022-10-16T08:31:35;4.60;;;4.10;;
74465;SDS011;62916;50.044;15.938;2022-10-16T08:34:05;6.20;;;4.40;;
74465;SDS011;62916;50.044;15.938;2022-10-16T08:36:36;5.00;;;4.50;;
74465;SDS011;62916;50.044;15.938;2022-10-16T08:39:08;6.00;;;5.40;;
74465;SDS011;62916;50.044;15.938;2022-10-16T08:41:48;6.50;;;4.60;;
74465;SDS011;62916;50.044;15.938;2022-10-16T08:45:02;4.80;;;4.40;;
74465;SDS011;62916;50.044;15.938;2022-10-16T08:47:46;5.00;;;4.60;;
74465;SDS011;62916;50.044;15.938;2022-10-16T08:52:55;6.30;;;4.60;;
74465;SDS011;62916;50.044;15.938;2022-10-16T08:55:33;5.80;;;4.90;;
74465;SDS011;62916;50.044;15.938;2022-10-16T08:58:15;5.60;;;4.80;;
74465;SDS011;62916;50.044;15.938;2022-10-16T09:00:50;5.20;;;4.70;;
74465;SDS011;62916;50.044;15.938;2022-10-16T09:03:27;5.50;;;3.90;;
74465;SDS011;62916;50.044;15.938;2022-10-16T09:06:19;5.90;;;4.50;;
74465;SDS011;62916;50.044;15.938;2022-10-16T09:09:13;5.90;;;4.40;;
74465;SDS011;62916;50.044;15.938;2022-10-16T09:11:55;5.30;;;4.30;;
74465;SDS011;62916;50.044;15.938;2022-10-16T09:17:32;7.70;;;4.50;;
74465;SDS011;62916;50.044;15.938;2022-10-16T09:20:16;6.00;;;4.30;;
74465;SDS011;62916;50.044;15.938;2022-10-16T09:22:56;6.10;;;4.40;;
74465;SDS011;62916;50.044;15.938;2022-10-16T09:25:42;6.30;;;3.90;;
74465;SDS011;62916;50.044;15.938;2022-10-16T09:28:15;7.10;;;4.00;;
74465;SDS011;62916;50.044;15.938;2022-10-16T09:30:47;5.00;;;4.00;;
74465;SDS011;62916;50.044;15.938;2022-10-16T09:33:19;8.50;;;3.70;;
74465;SDS011;62916;50.044;15.938;2022-10-16T09:35:54;4.00;;;3.30;;
74465;SDS011;62916;50.044;15.938;2022-10-16T09:38:27;5.60;;;4.00;;
74465;SDS011;62916;50.044;15.938;2022-10-16T09:41:00;4.80;;;3.60;;
74465;SDS011;62916;50.044;15.938;2022-10-16T09:43:47;4.00;;;3.50;;
74465;SDS011;62916;50.044;15.938;2022-10-16T09:46:29;4.00;;;3.30;;
74465;SDS011;62916;50.044;15.938;2022-10-16T09:49:01;4.00;;;3.50;;
74465;SDS011;62916;50.044;15.938;2022-10-16T09:51:34;5.50;;;3.10;;
74465;SDS011;62916;50.044;15.938;2022-10-16T09:54:13;4.40;;;3.20;;
74465;SDS011;62916;50.044;15.938;2022-10-16T09:56:46;5.20;;;4.40;;
74465;SDS011;62916;50.044;15.938;2022-10-16T09:59:20;4.30;;;3.90;;
74465;SDS011;62916;50.044;15.938;2022-10-16T10:01:54;4.80;;;3.60;;
74465;SDS011;62916;50.044;15.938;2022-10-16T10:04:36;4.90;;;3.20;;
74465;SDS011;62916;50.044;15.938;2022-10-16T10:07:14;5.40;;;3.60;;
74465;SDS011;62916;50.044;15.938;2022-10-16T10:09:49;3.70;;;3.20;;
74465;SDS011;62916;50.044;15.938;2022-10-16T10:12:21;3.60;;;3.30;;
74465;SDS011;62916;50.044;15.938;2022-10-16T10:17:25;3.20;;;2.80;;
74465;SDS011;62916;50.044;15.938;2022-10-16T10:19:57;4.40;;;2.90;;
74465;SDS011;62916;50.044;15.938;2022-10-16T10:22:39;4.00;;;3.60;;
74465;SDS011;62916;50.044;15.938;2022-10-16T10:28:20;4.50;;;3.30;;
74465;SDS011;62916;50.044;15.938;2022-10-16T10:31:03;4.50;;;3.80;;
74465;SDS011;62916;50.044;15.938;2022-10-16T10:33:41;4.50;;;3.70;;
74465;SDS011;62916;50.044;15.938;2022-10-16T10:36:19;3.90;;;3.50;;
74465;SDS011;62916;50.044;15.938;2022-10-16T10:38:58;5.20;;;4.10;;
74465;SDS011;62916;50.044;15.938;2022-10-16T10:41:44;5.50;;;3.90;;
74465;SDS011;62916;50.044;15.938;2022-10-16T10:44:41;4.30;;;3.70;;
74465;SDS011;62916;50.044;15.938;2022-10-16T10:47:35;4.50;;;4.00;;
74465;SDS011;62916;50.044;15.938;2022-10-16T10:50:18;4.70;;;3.70;;
74465;SDS011;62916;50.044;15.938;2022-10-16T10:52:59;4.20;;;3.70;;
74465;SDS011;62916;50.044;15.938;2022-10-16T10:55:39;4.40;;;4.00;;
74465;SDS011;62916;50.044;15.938;2022-10-16T11:01:29;5.20;;;4.00;;
74465;SDS011;62916;50.044;15.938;2022-10-16T11:04:15;4.80;;;4.20;;
74465;SDS011;62916;50.044;15.938;2022-10-16T11:07:04;5.10;;;3.80;;
74465;SDS011;62916;50.044;15.938;2022-10-16T11:09:40;5.40;;;4.30;;
74465;SDS011;62916;50.044;15.938;2022-10-16T11:12:16;5.00;;;4.40;;
74465;SDS011;62916;50.044;15.938;2022-10-16T11:14:53;5.50;;;4.70;;
74465;SDS011;62916;50.044;15.938;2022-10-16T11:17:31;5.90;;;5.30;;
74465;SDS011;62916;50.044;15.938;2022-10-16T11:20:11;4.90;;;4.40;;
74465;SDS011;62916;50.044;15.938;2022-10-16T11:22:47;5.30;;;4.20;;
74465;SDS011;62916;50.044;15.938;2022-10-16T11:25:22;6.00;;;5.00;;
74465;SDS011;62916;50.044;15.938;2022-10-16T11:27:57;5.00;;;4.50;;
74465;SDS011;62916;50.044;15.938;2022-10-16T11:30:34;5.50;;;4.40;;
74465;SDS011;62916;50.044;15.938;2022-10-16T11:33:18;6.30;;;5.10;;
74465;SDS011;62916;50.044;15.938;2022-10-16T11:36:01;6.30;;;4.70;;
74465;SDS011;62916;50.044;15.938;2022-10-16T11:38:42;5.80;;;4.80;;
74465;SDS011;62916;50.044;15.938;2022-10-16T11:41:21;5.80;;;5.20;;
74465;SDS011;62916;50.044;15.938;2022-10-16T11:44:04;6.40;;;5.10;;
74465;SDS011;62916;50.044;15.938;2022-10-16T11:46:45;6.50;;;5.20;;
74465;SDS011;62916;50.044;15.938;2022-10-16T11:52:07;6.80;;;5.50;;
74465;SDS011;62916;50.044;15.938;2022-10-16T11:54:47;6.80;;;5.50;;
74465;SDS011;62916;50.044;15.938;2022-10-16T11:57:26;6.20;;;5.60;;
74465;SDS011;62916;50.044;15.938;2022-10-16T12:00:01;5.60;;;4.70;;
74465;SDS011;62916;50.044;15.938;2022-10-16T12:02:39;6.20;;;4.90;;
74465;SDS011;62916;50.044;15.938;2022-10-16T12:05:23;7.20;;;5.80;;
74465;SDS011;62916;50.044;15.938;2022-10-16T12:08:04;6.30;;;5.50;;
74465;SDS011;62916;50.044;15.938;2022-10-16T12:10:40;6.70;;;4.80;;
74465;SDS011;62916;50.044;15.938;2022-10-16T12:13:32;8.40;;;6.30;;
74465;SDS011;62916;50.044;15.938;2022-10-16T12:16:05;7.30;;;5.40;;
74465;SDS011;62916;50.044;15.938;2022-10-16T12:19:02;8.90;;;6.50;;
74465;SDS011;62916;50.044;15.938;2022-10-16T12:21:40;6.90;;;6.10;;
74465;SDS011;62916;50.044;15.938;2022-10-16T12:24:26;8.20;;;6.10;;
74465;SDS011;62916;50.044;15.938;2022-10-16T12:27:01;8.40;;;6.30;;
74465;SDS011;62916;50.044;15.938;2022-10-16T12:29:34;8.80;;;6.80;;
74465;SDS011;62916;50.044;15.938;2022-10-16T12:35:19;7.60;;;5.80;;
74465;SDS011;62916;50.044;15.938;2022-10-16T12:37:52;7.30;;;5.80;;
74465;SDS011;62916;50.044;15.938;2022-10-16T12:40:34;7.00;;;6.30;;
74465;SDS011;62916;50.044;15.938;2022-10-16T12:43:23;6.50;;;5.50;;
74465;SDS011;62916;50.044;15.938;2022-10-16T12:46:01;6.40;;;5.30;;
74465;SDS011;62916;50.044;15.938;2022-10-16T12:48:48;7.20;;;6.50;;
74465;SDS011;62916;50.044;15.938;2022-10-16T12:51:36;6.10;;;5.50;;
74465;SDS011;62916;50.044;15.938;2022-10-16T12:54:12;6.80;;;5.10;;
74465;SDS011;62916;50.044;15.938;2022-10-16T12:56:49;6.70;;;5.50;;
74465;SDS011;62916;50.044;15.938;2022-10-16T12:59:31;5.80;;;5.20;;
74465;SDS011;62916;50.044;15.938;2022-10-16T13:05:22;7.40;;;5.40;;
74465;SDS011;62916;50.044;15.938;2022-10-16T13:08:12;6.40;;;5.10;;
74465;SDS011;62916;50.044;15.938;2022-10-16T13:10:56;6.50;;;5.30;;
74465;SDS011;62916;50.044;15.938;2022-10-16T13:13:41;5.60;;;5.10;;
74465;SDS011;62916;50.044;15.938;2022-10-16T13:16:30;7.50;;;5.30;;
74465;SDS011;62916;50.044;15.938;2022-10-16T13:21:46;5.90;;;5.20;;
74465;SDS011;62916;50.044;15.938;2022-10-16T13:24:25;6.80;;;5.00;;
74465;SDS011;62916;50.044;15.938;2022-10-16T13:27:10;6.30;;;4.80;;
74465;SDS011;62916;50.044;15.938;2022-10-16T13:29:53;8.10;;;5.20;;
74465;SDS011;62916;50.044;15.938;2022-10-16T13:32:29;7.80;;;5.40;;
74465;SDS011;62916;50.044;15.938;2022-10-16T13:35:01;10.30;;;5.10;;
74465;SDS011;62916;50.044;15.938;2022-10-16T13:37:33;9.40;;;5.00;;
74465;SDS011;62916;50.044;15.938;2022-10-16T13:40:06;6.80;;;5.10;;
74465;SDS011;62916;50.044;15.938;2022-10-16T13:42:46;6.00;;;5.20;;
74465;SDS011;62916;50.044;15.938;2022-10-16T13:45:21;6.20;;;4.90;;
74465;SDS011;62916;50.044;15.938;2022-10-16T13:48:02;7.10;;;5.10;;
74465;SDS011;62916;50.044;15.938;2022-10-16T13:50:35;6.30;;;4.80;;
74465;SDS011;62916;50.044;15.938;2022-10-16T13:53:06;7.70;;;5.10;;
74465;SDS011;62916;50.044;15.938;2022-10-16T13:55:41;6.20;;;5.10;;
74465;SDS011;62916;50.044;15.938;2022-10-16T13:58:13;6.70;;;5.70;;
74465;SDS011;62916;50.044;15.938;2022-10-16T14:00:54;7.60;;;5.50;;
74465;SDS011;62916;50.044;15.938;2022-10-16T14:03:27;9.00;;;6.20;;
74465;SDS011;62916;50.044;15.938;2022-10-16T14:06:00;6.70;;;5.80;;
74465;SDS011;62916;50.044;15.938;2022-10-16T14:08:32;6.90;;;6.20;;
74465;SDS011;62916;50.044;15.938;2022-10-16T14:11:04;7.00;;;5.60;;
74465;SDS011;62916;50.044;15.938;2022-10-16T14:13:36;6.80;;;5.30;;
74465;SDS011;62916;50.044;15.938;2022-10-16T14:16:18;7.80;;;6.60;;
74465;SDS011;62916;50.044;15.938;2022-10-16T14:18:54;8.60;;;6.80;;
74465;SDS011;62916;50.044;15.938;2022-10-16T14:21:28;7.70;;;6.00;;
74465;SDS011;62916;50.044;15.938;2022-10-16T14:24:00;7.50;;;5.60;;
74465;SDS011;62916;50.044;15.938;2022-10-16T14:26:42;7.80;;;6.10;;
74465;SDS011;62916;50.044;15.938;2022-10-16T14:29:18;9.00;;;6.60;;
74465;SDS011;62916;50.044;15.938;2022-10-16T14:31:56;9.30;;;7.10;;
74465;SDS011;62916;50.044;15.938;2022-10-16T14:34:29;6.90;;;6.20;;
74465;SDS011;62916;50.044;15.938;2022-10-16T14:37:06;7.40;;;6.60;;
74465;SDS011;62916;50.044;15.938;2022-10-16T14:39:51;7.80;;;6.50;;
74465;SDS011;62916;50.044;15.938;2022-10-16T14:42:24;8.70;;;7.10;;
74465;SDS011;62916;50.044;15.938;2022-10-16T14:44:55;9.30;;;7.20;;
74465;SDS011;62916;50.044;15.938;2022-10-16T14:47:27;8.20;;;6.70;;
74465;SDS011;62916;50.044;15.938;2022-10-16T14:49:58;8.70;;;6.40;;
74465;SDS011;62916;50.044;15.938;2022-10-16T14:52:29;8.10;;;7.20;;
74465;SDS011;62916;50.044;15.938;2022-10-16T14:55:00;7.80;;;6.80;;
74465;SDS011;62916;50.044;15.938;2022-10-16T14:57:32;8.20;;;7.20;;
74465;SDS011;62916;50.044;15.938;2022-10-16T15:00:10;11.50;;;9.40;;
74465;SDS011;62916;50.044;15.938;2022-10-16T15:02:46;9.60;;;8.30;;
74465;SDS011;62916;50.044;15.938;2022-10-16T15:05:19;11.30;;;9.50;;
74465;SDS011;62916;50.044;15.938;2022-10-16T15:07:51;13.40;;;11.10;;
74465;SDS011;62916;50.044;15.938;2022-10-16T15:10:24;12.60;;;9.90;;
74465;SDS011;62916;50.044;15.938;2022-10-16T15:12:57;11.40;;;9.30;;
74465;SDS011;62916;50.044;15.938;2022-10-16T15:15:30;13.00;;;10.50;;
74465;SDS011;62916;50.044;15.938;2022-10-16T15:18:03;11.80;;;10.00;;
74465;SDS011;62916;50.044;15.938;2022-10-16T15:20:36;12.00;;;8.90;;
74465;SDS011;62916;50.044;15.938;2022-10-16T15:23:11;13.70;;;9.50;;
74465;SDS011;62916;50.044;15.938;2022-10-16T15:25:45;14.40;;;10.70;;
74465;SDS011;62916;50.044;15.938;2022-10-16T15:28:17;13.50;;;10.30;;
74465;SDS011;62916;50.044;15.938;2022-10-16T15:30:50;15.50;;;10.80;;
74465;SDS011;62916;50.044;15.938;2022-10-16T15:33:23;14.40;;;10.80;;
74465;SDS011;62916;50.044;15.938;2022-10-16T15:36:06;13.60;;;10.60;;
74465;SDS011;62916;50.044;15.938;2022-10-16T15:38:37;13.00;;;10.90;;
74465;SDS011;62916;50.044;15.938;2022-10-16T15:43:40;15.20;;;10.50;;
74465;SDS011;62916;50.044;15.938;2022-10-16T15:46:12;14.50;;;10.50;;